Terminal Aerodrome Forecast
Issued by NWS Wilmington, OH

Current Version | Previous Version | Text Only | Print | Product List | Glossary Off
Versions: 1 2 3 4 5 6 7 8 9 10 11 12

000
FTUS41 KILN 091700
TAFDAY
TAF
KDAY 091726Z 0918/1018 27012KT P6SM SCT050
     FM091930 29012KT P6SM VCSH BKN040
     FM092200 31008KT P6SM SCT040
     FM100200 36004KT P6SM SKC
     FM101500 36008KT P6SM SKC=

USA.gov is the U.S. government's official web portal to all federal, state and local government web resources and services.